createdAt,value
2023-01-18T00:00:32.613Z,11.98
2023-01-18T00:02:59.626Z,11.02
2023-01-18T00:05:26.401Z,13.55
2023-01-18T00:07:53.536Z,10.63
2023-01-18T00:10:21.334Z,16.13
2023-01-18T00:12:49.608Z,14.40
2023-01-18T00:15:17.249Z,18.38
2023-01-18T00:17:53.575Z,13.05
2023-01-18T00:20:24.227Z,18.48
2023-01-18T00:22:52.661Z,19.83
2023-01-18T00:25:21.972Z,19.30
2023-01-18T00:27:51.835Z,20.33
2023-01-18T00:30:21.499Z,22.50
2023-01-18T00:32:50.065Z,26.92
2023-01-18T00:35:17.052Z,24.80
2023-01-18T00:37:45.688Z,30.42
2023-01-18T00:40:12.945Z,25.73
2023-01-18T00:42:59.845Z,26.58
2023-01-18T00:45:27.833Z,27.75
2023-01-18T00:47:55.120Z,29.55
2023-01-18T00:50:22.949Z,28.88
2023-01-18T00:52:51.069Z,28.95
2023-01-18T00:55:18.803Z,30.98
2023-01-18T00:57:46.446Z,27.40
2023-01-18T01:00:17.172Z,31.42
2023-01-18T01:02:44.391Z,29.95
2023-01-18T01:05:37.372Z,30.23
2023-01-18T01:08:06.348Z,34.22
2023-01-18T01:10:35.202Z,24.98
2023-01-18T01:13:21.265Z,29.75
2023-01-18T01:16:07.060Z,27.88
2023-01-18T01:18:52.775Z,27.45
2023-01-18T01:21:38.403Z,31.55
2023-01-18T01:24:24.509Z,27.52
2023-01-18T01:26:51.482Z,26.95
2023-01-18T01:29:18.865Z,23.60
2023-01-18T01:31:46.065Z,25.95
2023-01-18T01:34:13.499Z,23.98
2023-01-18T01:36:40.808Z,23.08
2023-01-18T01:39:11.304Z,25.33
2023-01-18T01:41:38.717Z,24.42
2023-01-18T01:44:20.819Z,24.13
2023-01-18T01:46:51.134Z,20.80
2023-01-18T01:49:24.134Z,20.43
2023-01-18T01:51:55.776Z,22.33
2023-01-18T01:54:27.141Z,17.42
2023-01-18T01:57:00.117Z,16.98
2023-01-18T01:59:27.283Z,19.10
2023-01-18T02:01:54.826Z,16.65
2023-01-18T02:04:22.327Z,21.23
2023-01-18T02:06:48.916Z,17.13
2023-01-18T02:09:16.556Z,17.77
2023-01-18T02:11:44.340Z,18.23
2023-01-18T02:14:16.759Z,14.45
2023-01-18T02:16:43.819Z,19.17
2023-01-18T02:19:48.412Z,14.52
2023-01-18T02:25:06.005Z,14.87
2023-01-18T02:27:49.069Z,14.88
2023-01-18T02:30:35.131Z,14.07
2023-01-18T02:33:06.279Z,14.27
2023-01-18T02:35:53.040Z,12.30
2023-01-18T02:38:25.785Z,12.53
2023-01-18T02:41:51.679Z,11.00
2023-01-18T02:44:56.387Z,13.43
2023-01-18T02:49:51.256Z,9.97
2023-01-18T02:52:47.728Z,12.57
2023-01-18T02:55:25.656Z,9.50
2023-01-18T02:57:57.453Z,8.80
2023-01-18T03:00:26.117Z,8.80
2023-01-18T03:02:55.401Z,8.13
2023-01-18T03:05:25.401Z,9.47
2023-01-18T03:08:14.725Z,8.43
2023-01-18T03:11:01.010Z,8.43
2023-01-18T03:13:37.187Z,7.90
2023-01-18T03:16:21.744Z,6.25
2023-01-18T03:19:37.892Z,6.67
2023-01-18T03:22:06.765Z,7.03
2023-01-18T03:24:41.503Z,6.25
2023-01-18T03:27:28.545Z,6.43
2023-01-18T03:30:14.728Z,6.75
2023-01-18T03:33:01.539Z,6.80
2023-01-18T03:35:30.507Z,6.03
2023-01-18T03:37:59.978Z,8.68
2023-01-18T03:40:30.681Z,8.98
2023-01-18T03:43:11.855Z,7.00
2023-01-18T03:45:41.279Z,6.07
2023-01-18T03:48:09.877Z,7.63
2023-01-18T03:50:45.945Z,7.18
2023-01-18T03:53:17.384Z,6.73
2023-01-18T03:55:50.708Z,6.60
2023-01-18T03:58:22.980Z,9.23
2023-01-18T04:00:52.622Z,6.95
2023-01-18T04:03:20.069Z,6.93
2023-01-18T04:05:47.673Z,7.40
2023-01-18T04:08:15.889Z,5.53
2023-01-18T04:10:43.119Z,5.55
2023-01-18T04:13:10.326Z,4.95
2023-01-18T04:15:36.904Z,4.57
2023-01-18T04:18:04.573Z,6.43
2023-01-18T04:20:31.725Z,4.65
2023-01-18T04:22:59.329Z,4.25
2023-01-18T04:25:27.476Z,3.80
2023-01-18T04:27:54.796Z,4.40
2023-01-18T04:30:22.314Z,3.53
2023-01-18T04:32:49.837Z,3.53
2023-01-18T04:35:17.331Z,3.00
2023-01-18T04:37:44.087Z,4.50
2023-01-18T04:40:11.937Z,3.13
2023-01-18T04:42:38.521Z,3.30
2023-01-18T04:45:14.195Z,3.25
2023-01-18T04:47:40.785Z,2.58
2023-01-18T04:50:08.392Z,3.95
2023-01-18T04:52:34.935Z,3.60
2023-01-18T04:55:01.558Z,2.55
2023-01-18T04:57:28.312Z,3.38
2023-01-18T04:59:54.920Z,2.53
2023-01-18T05:02:21.677Z,3.35
2023-01-18T05:04:48.301Z,2.33
2023-01-18T05:07:14.820Z,3.00
2023-01-18T05:09:41.445Z,4.33
2023-01-18T05:12:08.147Z,3.30
2023-01-18T05:14:34.723Z,2.67
2023-01-18T05:17:01.281Z,2.30
2023-01-18T05:19:30.555Z,2.87
2023-01-18T05:21:57.198Z,2.33
2023-01-18T05:24:23.861Z,3.10
2023-01-18T05:26:50.467Z,3.37
2023-01-18T05:29:17.971Z,3.65
2023-01-18T05:31:44.740Z,3.70
2023-01-18T05:34:11.356Z,4.40
2023-01-18T05:36:37.886Z,6.00
2023-01-18T05:39:04.493Z,5.70
2023-01-18T05:41:31.027Z,6.20
2023-01-18T05:43:57.593Z,9.30
2023-01-18T05:46:24.380Z,8.27
2023-01-18T05:48:50.941Z,9.97
2023-01-18T05:51:17.553Z,9.33
2023-01-18T05:53:44.156Z,10.60
2023-01-18T05:56:11.820Z,11.80
2023-01-18T05:58:39.108Z,9.63
2023-01-18T06:01:07.833Z,9.27
2023-01-18T06:03:35.121Z,8.55
2023-01-18T06:06:01.932Z,11.40
2023-01-18T06:08:28.610Z,9.30
2023-01-18T06:10:56.996Z,10.00
2023-01-18T06:13:25.041Z,9.17
2023-01-18T06:15:52.235Z,9.43
2023-01-18T06:18:18.890Z,9.20
2023-01-18T06:20:45.569Z,8.90
2023-01-18T06:23:12.505Z,9.90
2023-01-18T06:25:39.233Z,9.90
2023-01-18T06:28:06.467Z,8.70
2023-01-18T06:30:34.636Z,8.37
2023-01-18T06:33:06.884Z,8.70
2023-01-18T06:35:34.481Z,8.77
2023-01-18T06:38:01.415Z,9.77
2023-01-18T06:40:28.420Z,10.40
2023-01-18T06:42:55.063Z,7.00
2023-01-18T06:45:22.822Z,10.17
2023-01-18T06:47:50.352Z,8.17
2023-01-18T06:50:18.433Z,7.50
2023-01-18T06:52:45.549Z,8.60
2023-01-18T06:55:14.287Z,7.40
2023-01-18T06:57:42.476Z,7.07
2023-01-18T07:00:12.171Z,9.50
2023-01-18T07:02:40.338Z,7.60
2023-01-18T07:05:07.171Z,6.83
2023-01-18T07:07:34.870Z,7.10
2023-01-18T07:10:02.448Z,7.03
2023-01-18T07:12:29.867Z,11.23
2023-01-18T07:14:57.981Z,9.67
2023-01-18T07:17:24.511Z,6.53
2023-01-18T07:19:52.113Z,9.13
2023-01-18T07:22:19.542Z,7.28
2023-01-18T07:24:46.435Z,7.32
2023-01-18T07:27:13.456Z,7.07
2023-01-18T07:29:40.911Z,170.25
2023-01-18T07:32:08.376Z,22.10
2023-01-18T07:34:36.004Z,28.50
2023-01-18T07:37:02.624Z,8.15
2023-01-18T07:39:29.168Z,15.90
2023-01-18T07:41:56.281Z,6.18
2023-01-18T07:44:24.047Z,5.22
2023-01-18T07:46:50.831Z,5.25
2023-01-18T07:49:17.614Z,5.82
2023-01-18T07:51:45.408Z,6.13
2023-01-18T07:54:13.328Z,6.10
2023-01-18T07:56:40.367Z,6.77
2023-01-18T07:59:07.049Z,6.25
2023-01-18T08:01:33.665Z,5.93
2023-01-18T08:04:00.360Z,5.35
2023-01-18T08:06:27.731Z,4.97
2023-01-18T08:08:56.774Z,5.47
2023-01-18T08:11:24.847Z,4.37
2023-01-18T08:13:52.895Z,4.90
2023-01-18T08:16:20.498Z,5.00
2023-01-18T08:18:52.168Z,39.28
2023-01-18T08:21:18.944Z,10.30
2023-01-18T08:23:46.589Z,52.05
2023-01-18T08:26:15.146Z,13.63
2023-01-18T08:28:41.870Z,7.35
2023-01-18T08:31:20.366Z,5.15
2023-01-18T08:33:48.888Z,9.07
2023-01-18T08:36:19.654Z,6.78
2023-01-18T08:38:53.326Z,6.43
2023-01-18T08:43:51.195Z,6.95
2023-01-18T08:46:18.467Z,6.82
2023-01-18T08:48:44.984Z,6.53
2023-01-18T08:51:11.771Z,5.13
2023-01-18T08:53:39.061Z,6.38
2023-01-18T08:56:09.533Z,6.68
2023-01-18T08:58:36.141Z,5.13
2023-01-18T09:01:09.567Z,7.60
2023-01-18T09:03:37.167Z,13.70
2023-01-18T09:06:08.542Z,7.70
2023-01-18T09:08:36.299Z,8.15
2023-01-18T09:11:08.744Z,8.57
2023-01-18T09:13:35.532Z,8.20
2023-01-18T09:16:10.787Z,8.35
2023-01-18T09:18:38.350Z,7.70
2023-01-18T09:21:07.655Z,8.93
2023-01-18T09:23:35.930Z,8.38
2023-01-18T09:26:05.321Z,9.80
2023-01-18T09:28:34.179Z,9.73
2023-01-18T09:31:02.856Z,7.47
2023-01-18T09:33:37.562Z,9.90
2023-01-18T09:36:10.144Z,8.93
2023-01-18T09:38:38.492Z,10.17
2023-01-18T09:41:23.114Z,8.57
2023-01-18T09:43:53.885Z,11.40
2023-01-18T09:46:23.218Z,18.05
2023-01-18T09:48:55.933Z,11.30
2023-01-18T09:51:28.180Z,10.68
2023-01-18T09:54:24.711Z,10.63
2023-01-18T09:57:03.877Z,31.52
2023-01-18T10:00:00.709Z,11.50
2023-01-18T10:02:40.340Z,10.25
2023-01-18T10:05:15.912Z,9.68
2023-01-18T10:08:02.454Z,15.60
2023-01-18T10:10:39.352Z,17.20
2023-01-18T10:13:28.780Z,20.98
2023-01-18T10:15:56.657Z,23.17
2023-01-18T10:18:25.191Z,21.92
2023-01-18T10:20:57.905Z,19.17
2023-01-18T10:24:02.253Z,18.60
2023-01-18T10:26:36.024Z,26.42
2023-01-18T10:29:17.195Z,31.85
2023-01-18T10:32:09.562Z,32.80
2023-01-18T10:34:42.816Z,43.10
2023-01-18T10:37:42.758Z,42.03
2023-01-18T10:40:13.116Z,40.25
2023-01-18T10:42:47.923Z,52.87
2023-01-18T10:45:20.398Z,36.60
2023-01-18T10:47:52.047Z,38.97
2023-01-18T10:50:50.996Z,49.80
2023-01-18T10:53:40.820Z,51.10
2023-01-18T10:56:10.156Z,44.80
2023-01-18T10:58:40.118Z,41.57
2023-01-18T11:01:15.461Z,35.15
2023-01-18T11:03:49.109Z,39.27
2023-01-18T11:06:20.736Z,43.70
2023-01-18T11:08:51.104Z,31.90
2023-01-18T11:11:45.673Z,27.13
2023-01-18T11:14:32.188Z,33.30
2023-01-18T11:17:11.996Z,35.97
2023-01-18T11:19:39.474Z,26.63
2023-01-18T11:22:16.681Z,31.85
2023-01-18T11:24:43.613Z,27.70
2023-01-18T11:27:21.765Z,34.97
2023-01-18T11:29:49.701Z,27.52
2023-01-18T11:32:17.808Z,27.60
2023-01-18T11:34:49.592Z,32.80
2023-01-18T11:37:37.200Z,50.80
2023-01-18T11:40:19.751Z,46.85
2023-01-18T11:42:49.704Z,25.98
2023-01-18T11:45:37.915Z,20.88
2023-01-18T11:48:14.256Z,29.38
2023-01-18T11:50:44.956Z,20.48
2023-01-18T11:53:24.157Z,26.27
2023-01-18T11:56:06.015Z,21.65
2023-01-18T11:58:35.172Z,24.65
2023-01-18T12:01:26.477Z,20.58
2023-01-18T12:04:11.882Z,19.80
2023-01-18T12:06:57.528Z,21.05
2023-01-18T12:09:46.704Z,28.75
2023-01-18T12:12:31.753Z,20.15
2023-01-18T12:15:25.885Z,23.67
2023-01-18T12:18:17.592Z,27.70
2023-01-18T12:21:05.823Z,22.73
2023-01-18T12:23:53.990Z,20.58
2023-01-18T12:26:45.314Z,12.80
2023-01-18T12:29:57.370Z,13.13
2023-01-18T12:32:45.408Z,13.05
2023-01-18T12:35:24.683Z,11.52
2023-01-18T12:37:52.255Z,10.95
2023-01-18T12:41:11.220Z,9.77
2023-01-18T12:43:56.219Z,9.48
2023-01-18T12:46:28.583Z,10.25
2023-01-18T12:49:04.720Z,8.75
2023-01-18T12:51:35.623Z,10.38
2023-01-18T12:54:02.161Z,12.57
2023-01-18T12:56:46.361Z,14.00
2023-01-18T12:59:20.541Z,12.63
2023-01-18T13:02:16.199Z,11.48
2023-01-18T13:04:50.243Z,11.77
2023-01-18T13:07:22.174Z,10.05
2023-01-18T13:09:50.655Z,9.57
2023-01-18T13:12:19.019Z,11.65
2023-01-18T13:14:48.412Z,8.52
2023-01-18T13:17:24.518Z,8.52
2023-01-18T13:20:00.865Z,10.82
2023-01-18T13:22:54.976Z,11.70
2023-01-18T13:25:29.653Z,11.30
2023-01-18T13:28:02.739Z,11.88
2023-01-18T13:30:47.170Z,9.95
2023-01-18T13:33:15.432Z,11.65
2023-01-18T13:35:53.601Z,28.15
2023-01-18T13:38:40.818Z,15.35
2023-01-18T13:41:13.325Z,10.85
2023-01-18T13:43:41.429Z,11.55
2023-01-18T13:46:08.991Z,14.60
2023-01-18T13:49:03.212Z,14.43
2023-01-18T13:51:42.110Z,13.02
2023-01-18T13:54:18.135Z,13.30
2023-01-18T13:57:18.241Z,12.07
2023-01-18T13:59:49.535Z,11.07
2023-01-18T14:02:42.720Z,10.43
2023-01-18T14:05:43.284Z,11.15
2023-01-18T14:08:21.875Z,12.85
2023-01-18T14:10:53.722Z,7.03
2023-01-18T14:13:48.532Z,7.50
2023-01-18T14:16:18.440Z,8.32
2023-01-18T14:19:19.725Z,24.40
2023-01-18T14:22:28.115Z,10.27
2023-01-18T14:25:22.254Z,9.52
2023-01-18T14:28:04.183Z,9.57
2023-01-18T14:30:35.476Z,9.27
2023-01-18T14:33:18.634Z,12.73
2023-01-18T14:35:58.461Z,10.13
2023-01-18T14:38:26.585Z,13.85
2023-01-18T14:40:59.545Z,12.25
2023-01-18T14:43:43.087Z,10.15
2023-01-18T14:46:29.939Z,10.32
2023-01-18T14:48:58.372Z,11.38
2023-01-18T14:51:29.037Z,14.35
2023-01-18T14:54:00.963Z,13.95
2023-01-18T14:56:40.098Z,11.13
2023-01-18T14:59:22.154Z,20.90
2023-01-18T15:01:58.940Z,13.52
2023-01-18T15:04:28.330Z,15.65
2023-01-18T15:07:03.908Z,14.13
2023-01-18T15:09:38.579Z,15.52
2023-01-18T15:12:09.992Z,17.20
2023-01-18T15:14:41.417Z,13.77
2023-01-18T15:17:26.989Z,15.68
2023-01-18T15:19:57.947Z,60.15
2023-01-18T15:22:33.203Z,23.17
2023-01-18T15:25:01.254Z,15.77
2023-01-18T15:27:34.287Z,19.88
2023-01-18T15:30:02.561Z,19.10
2023-01-18T15:32:31.586Z,16.38
2023-01-18T15:35:00.593Z,20.27
2023-01-18T15:37:30.813Z,18.17
2023-01-18T15:39:57.823Z,15.90
2023-01-18T15:42:39.090Z,19.35
2023-01-18T15:45:18.063Z,18.35
2023-01-18T15:47:50.572Z,25.63
2023-01-18T15:50:47.016Z,22.00
2023-01-18T15:53:23.847Z,22.05
2023-01-18T15:55:54.656Z,26.90
2023-01-18T15:58:40.323Z,26.38
2023-01-18T16:01:08.210Z,29.15
2023-01-18T16:03:39.143Z,26.97
2023-01-18T16:06:13.864Z,30.52
2023-01-18T16:09:19.986Z,30.77
2023-01-18T16:12:00.744Z,32.33
2023-01-18T16:14:38.478Z,29.30
2023-01-18T16:17:06.027Z,31.98
2023-01-18T16:20:02.243Z,34.97
2023-01-18T16:22:38.692Z,31.55
2023-01-18T16:25:21.564Z,28.98
2023-01-18T16:27:49.808Z,37.40
2023-01-18T16:30:23.532Z,33.88
2023-01-18T16:35:21.802Z,37.88
2023-01-18T16:37:49.928Z,38.70
2023-01-18T16:40:22.191Z,37.45
2023-01-18T16:43:02.751Z,40.90
2023-01-18T16:45:36.368Z,39.45
2023-01-18T16:50:32.634Z,42.83
2023-01-18T16:53:00.120Z,38.35
2023-01-18T16:55:27.605Z,36.63
2023-01-18T16:57:54.746Z,40.58
2023-01-18T17:00:26.615Z,43.20
2023-01-18T17:02:54.346Z,39.47
2023-01-18T17:05:21.616Z,41.97
2023-01-18T17:07:48.443Z,43.33
2023-01-18T17:10:37.819Z,41.53
2023-01-18T17:13:04.820Z,37.83
2023-01-18T17:15:35.845Z,41.92
2023-01-18T17:18:04.366Z,37.78
2023-01-18T17:20:32.149Z,45.50
2023-01-18T17:23:00.077Z,44.28
2023-01-18T17:25:27.314Z,46.10
2023-01-18T17:27:56.823Z,41.55
2023-01-18T17:30:23.673Z,43.55
2023-01-18T17:32:51.783Z,43.13
2023-01-18T17:35:24.537Z,44.80
2023-01-18T17:38:00.742Z,39.65
2023-01-18T17:40:40.074Z,43.40
2023-01-18T17:43:32.134Z,40.53
2023-01-18T17:46:02.990Z,48.50
2023-01-18T17:48:30.094Z,52.40
2023-01-18T17:50:56.675Z,50.15
2023-01-18T17:53:24.136Z,53.63
2023-01-18T17:55:50.730Z,52.45
2023-01-18T17:58:17.305Z,48.65
2023-01-18T18:00:45.503Z,57.55
2023-01-18T18:03:12.517Z,55.88
2023-01-18T18:05:39.852Z,47.42
2023-01-18T18:08:08.375Z,49.15
2023-01-18T18:10:35.343Z,47.95
2023-01-18T18:13:02.353Z,47.30
2023-01-18T18:15:29.010Z,47.85
2023-01-18T18:17:56.173Z,52.42
2023-01-18T18:20:22.991Z,46.97
2023-01-18T18:22:49.994Z,54.67
2023-01-18T18:25:17.508Z,62.78
2023-01-18T18:27:47.152Z,50.08
2023-01-18T18:30:17.701Z,57.60
2023-01-18T18:32:45.511Z,52.78
2023-01-18T18:35:24.269Z,49.65
2023-01-18T18:37:54.346Z,49.08
2023-01-18T18:40:22.196Z,54.55
2023-01-18T18:43:04.678Z,49.42
2023-01-18T18:45:32.149Z,57.03
2023-01-18T18:48:00.799Z,53.45
2023-01-18T18:50:28.163Z,57.45
2023-01-18T18:52:55.742Z,55.88
2023-01-18T18:55:23.055Z,49.28
2023-01-18T18:57:50.063Z,61.78
2023-01-18T19:00:18.093Z,50.97
2023-01-18T19:02:44.805Z,49.17
2023-01-18T19:05:12.222Z,54.53
2023-01-18T19:07:39.534Z,51.58
2023-01-18T19:10:07.307Z,51.38
2023-01-18T19:12:34.261Z,53.80
2023-01-18T19:15:01.509Z,50.85
2023-01-18T19:17:31.099Z,46.55
2023-01-18T19:19:59.638Z,48.72
2023-01-18T19:22:26.407Z,43.05
2023-01-18T19:24:53.948Z,51.65
2023-01-18T19:27:22.069Z,47.53
2023-01-18T19:29:49.378Z,55.58
2023-01-18T19:32:16.787Z,43.70
2023-01-18T19:34:43.617Z,44.75
2023-01-18T19:37:11.190Z,51.10
2023-01-18T19:39:38.717Z,99.88
2023-01-18T19:42:07.437Z,50.58
2023-01-18T19:44:34.889Z,44.05
2023-01-18T19:47:01.589Z,40.65
2023-01-18T19:49:28.321Z,41.45
2023-01-18T19:51:56.503Z,43.58
2023-01-18T19:54:24.124Z,38.38
2023-01-18T19:56:51.882Z,45.65
2023-01-18T19:59:18.483Z,45.70
2023-01-18T20:01:45.281Z,57.10
2023-01-18T20:04:13.478Z,40.08
2023-01-18T20:06:43.259Z,46.55
2023-01-18T20:09:26.990Z,53.03
2023-01-18T20:11:57.204Z,42.30
2023-01-18T20:14:30.692Z,38.35
2023-01-18T20:17:00.271Z,47.70
2023-01-18T20:19:27.390Z,42.90
2023-01-18T20:21:56.284Z,43.83
2023-01-18T20:24:22.990Z,33.60
2023-01-18T20:26:50.641Z,39.50
2023-01-18T20:29:17.993Z,37.17
2023-01-18T20:31:50.046Z,57.30
2023-01-18T20:34:16.921Z,33.28
2023-01-18T20:36:46.480Z,41.30
2023-01-18T20:39:13.967Z,44.67
2023-01-18T20:41:40.817Z,38.00
2023-01-18T20:44:08.683Z,63.42
2023-01-18T20:46:36.020Z,63.05
2023-01-18T20:49:04.069Z,51.80
2023-01-18T20:51:32.349Z,42.75
2023-01-18T20:53:59.081Z,57.17
2023-01-18T20:56:29.711Z,57.67
2023-01-18T20:58:58.164Z,49.95
2023-01-18T21:01:32.287Z,49.97
2023-01-18T21:04:01.925Z,54.38
2023-01-18T21:06:29.338Z,45.55
2023-01-18T21:08:57.052Z,45.85
2023-01-18T21:11:25.540Z,43.30
2023-01-18T21:13:56.299Z,53.00
2023-01-18T21:16:23.628Z,50.67
2023-01-18T21:18:53.253Z,55.17
2023-01-18T21:21:20.279Z,48.65
2023-01-18T21:23:47.985Z,68.60
2023-01-18T21:26:15.561Z,59.33
2023-01-18T21:28:43.035Z,57.97
2023-01-18T21:31:10.594Z,362.75
2023-01-18T21:33:38.337Z,91.03
2023-01-18T21:36:13.800Z,101.22
2023-01-18T21:38:40.712Z,127.05
2023-01-18T21:41:26.664Z,70.82
2023-01-18T21:44:12.836Z,58.15
2023-01-18T21:46:45.949Z,64.10
2023-01-18T21:49:47.087Z,59.85
2023-01-18T21:52:37.628Z,81.07
2023-01-18T21:55:04.507Z,64.70
2023-01-18T21:57:31.366Z,60.75
2023-01-18T21:59:58.100Z,53.60
2023-01-18T22:02:24.891Z,54.22
2023-01-18T22:05:00.853Z,54.65
2023-01-18T22:07:30.137Z,61.60
2023-01-18T22:10:06.049Z,55.80
2023-01-18T22:12:35.794Z,53.90
2023-01-18T22:15:06.515Z,78.07
2023-01-18T22:17:33.156Z,69.60
2023-01-18T22:20:00.237Z,65.18
2023-01-18T22:22:27.337Z,53.67
2023-01-18T22:24:54.181Z,66.32
2023-01-18T22:27:20.735Z,113.18
2023-01-18T22:29:47.345Z,197.02
2023-01-18T22:32:13.906Z,83.72
2023-01-18T22:34:40.554Z,61.45
2023-01-18T22:37:07.182Z,57.20
2023-01-18T22:39:33.729Z,120.65
2023-01-18T22:42:00.264Z,63.72
2023-01-18T22:44:26.808Z,104.15
2023-01-18T22:46:53.469Z,111.72
2023-01-18T22:49:20.130Z,156.05
2023-01-18T22:51:46.663Z,90.03
2023-01-18T22:54:13.354Z,89.20
2023-01-18T22:56:39.863Z,74.78
2023-01-18T22:59:06.475Z,65.95
2023-01-18T23:01:36.237Z,78.90
2023-01-18T23:04:06.313Z,75.38
2023-01-18T23:06:45.756Z,78.05
2023-01-18T23:09:14.461Z,172.57
2023-01-18T23:11:41.631Z,72.25
2023-01-18T23:14:26.715Z,74.03
2023-01-18T23:17:11.868Z,106.93
2023-01-18T23:19:38.539Z,72.72
2023-01-18T23:22:07.305Z,77.80
2023-01-18T23:24:35.710Z,75.18
2023-01-18T23:27:03.576Z,74.25
2023-01-18T23:29:30.412Z,66.32
2023-01-18T23:31:57.659Z,63.42
2023-01-18T23:34:25.097Z,67.88
2023-01-18T23:36:52.215Z,70.40
2023-01-18T23:39:37.132Z,67.22
2023-01-18T23:42:22.232Z,69.82
2023-01-18T23:45:07.155Z,132.73
2023-01-18T23:47:53.641Z,70.53
2023-01-18T23:50:38.583Z,74.55
2023-01-18T23:53:23.516Z,55.10
2023-01-18T23:55:53.076Z,55.22
2023-01-18T23:58:19.743Z,54.55
